createdAt,value
2022-10-14T00:07:53.165Z,98210
2022-10-14T00:19:53.244Z,98200
2022-10-14T00:31:53.175Z,98200
2022-10-14T00:43:53.278Z,98190
2022-10-14T00:55:53.168Z,98190
2022-10-14T01:07:53.190Z,98190
2022-10-14T01:19:53.252Z,98190
2022-10-14T01:31:53.163Z,98180
2022-10-14T01:43:53.248Z,98160
2022-10-14T01:55:53.237Z,98140
2022-10-14T02:07:53.277Z,98130
2022-10-14T02:19:53.160Z,98120
2022-10-14T02:31:53.231Z,98110
2022-10-14T02:43:53.252Z,98100
2022-10-14T02:55:53.272Z,98080
2022-10-14T03:07:53.177Z,98090
2022-10-14T03:19:53.159Z,98080
2022-10-14T03:31:53.167Z,98080
2022-10-14T03:43:53.282Z,98090
2022-10-14T03:55:53.291Z,98070
2022-10-14T04:07:53.236Z,98070
2022-10-14T04:19:53.169Z,98060
2022-10-14T04:31:53.166Z,98050
2022-10-14T04:43:53.271Z,98040
2022-10-14T04:55:53.233Z,98030
2022-10-14T05:07:53.284Z,98020
2022-10-14T05:19:53.280Z,98020
2022-10-14T05:31:53.176Z,98010
2022-10-14T05:43:53.169Z,98000
2022-10-14T05:55:53.278Z,97990
2022-10-14T06:07:53.289Z,97980
2022-10-14T06:19:53.195Z,97990
2022-10-14T06:31:53.180Z,98000
2022-10-14T06:43:53.281Z,97970
2022-10-14T06:55:53.262Z,97960
2022-10-14T07:07:53.320Z,97950
2022-10-14T07:19:53.266Z,97960
2022-10-14T07:31:53.181Z,97960
2022-10-14T07:43:53.166Z,97960
2022-10-14T07:55:53.158Z,97960
2022-10-14T08:07:53.235Z,97950
2022-10-14T08:19:53.283Z,97950
2022-10-14T08:31:53.211Z,97960
2022-10-14T08:43:53.160Z,97950
2022-10-14T08:55:53.169Z,97930
2022-10-14T09:07:53.164Z,97930
2022-10-14T09:19:53.170Z,97910
2022-10-14T09:31:53.238Z,97900
2022-10-14T09:43:53.250Z,97900
2022-10-14T09:55:53.174Z,97890
2022-10-14T10:07:53.271Z,97890
2022-10-14T10:19:53.180Z,97880
2022-10-14T10:31:53.287Z,97870
2022-10-14T10:43:53.164Z,97840
2022-10-14T10:55:53.170Z,97850
2022-10-14T11:07:53.176Z,97820
2022-10-14T11:19:53.298Z,97810
2022-10-14T11:31:53.230Z,97810
2022-10-14T11:43:53.234Z,97770
2022-10-14T11:55:53.246Z,97770
2022-10-14T12:07:53.289Z,97760
2022-10-14T12:19:53.266Z,97760
2022-10-14T12:31:53.234Z,97750
2022-10-14T12:43:53.260Z,97740
2022-10-14T12:55:53.239Z,97720
2022-10-14T13:07:53.272Z,97720
2022-10-14T13:19:53.160Z,97680
2022-10-14T13:31:53.165Z,97680
2022-10-14T13:43:53.167Z,97680
2022-10-14T13:55:54.451Z,97680
2022-10-14T14:08:36.726Z,97670
2022-10-14T14:19:53.259Z,97670
2022-10-14T14:32:07.900Z,97660
2022-10-14T14:44:13.588Z,97660
2022-10-14T14:55:53.238Z,97660
2022-10-14T15:07:53.172Z,97650
2022-10-14T15:19:53.233Z,97650
2022-10-14T15:31:53.251Z,97650
2022-10-14T15:43:53.266Z,97620
2022-10-14T15:55:53.266Z,97610
2022-10-14T16:07:53.229Z,97600
2022-10-14T16:19:53.244Z,97580
2022-10-14T16:31:53.165Z,97590
2022-10-14T16:43:53.160Z,97590
2022-10-14T16:55:53.162Z,97580
2022-10-14T17:07:53.162Z,97580
2022-10-14T17:19:53.221Z,97570
2022-10-14T17:31:53.171Z,97570
2022-10-14T17:43:53.216Z,97570
2022-10-14T17:55:56.944Z,97560
2022-10-14T18:07:53.244Z,97580
2022-10-14T18:19:53.164Z,97570
2022-10-14T18:31:53.204Z,97550
2022-10-14T18:43:53.165Z,97570
2022-10-14T18:55:58.032Z,97550
2022-10-14T19:07:53.166Z,97530
2022-10-14T19:19:53.158Z,97530
2022-10-14T19:31:53.169Z,97520
2022-10-14T19:43:53.168Z,97530
2022-10-14T19:55:53.447Z,97530
2022-10-14T20:07:53.236Z,97530
2022-10-14T20:19:53.412Z,97490
2022-10-14T20:31:53.186Z,97480
2022-10-14T20:43:53.169Z,97470
2022-10-14T20:55:54.889Z,97470
2022-10-14T21:07:53.171Z,97470
2022-10-14T21:19:53.162Z,97430
2022-10-14T21:31:53.223Z,97430
2022-10-14T21:43:53.227Z,97400
2022-10-14T21:55:53.504Z,97410
2022-10-14T22:07:53.251Z,97410
2022-10-14T22:19:53.230Z,97420
2022-10-14T22:31:53.478Z,97420
2022-10-14T22:43:53.275Z,97390
2022-10-14T22:55:53.167Z,97380
2022-10-14T23:07:53.275Z,97380
2022-10-14T23:19:53.230Z,97380
2022-10-14T23:31:53.244Z,97370
2022-10-14T23:43:53.172Z,97380
2022-10-14T23:55:53.160Z,97370
